Minerva Atlantica — ZCPR7 — position and weather

sailwx.info

Track history (hours):
 
Tides and Currents Weather Stations Pressure Air Temp Water Temp Dewpoint Dewpoint Depression Visibility Wind Speed Wind Dir Waves Ship Positions

Minerva Atlantica

Last reported at 2018-Apr-11 18:46 UTC. Time now 2018-Apr-24 14:17 UTC.
Position N 49°52' W 003°47'.
Warning: this ship's position is 12 days out of date.

Length 250 m; draft 12.2 m.

Type: Tanker. MMSI: 319161000.

Date/timePositionNaut miles runAvg speedWind from/ knotsBaromVisibWave heightAir tempDewpointWater temp
2018-Apr-11 18:46N 49°52' W 003°47'712.4
2018-Apr-11 18:13N 49°54' W 003°37'612.2
2018-Apr-11 17:45N 49°55' W 003°28'312.0
2018-Apr-11 17:30N 49°56' W 003°24'611.9
2018-Apr-11 17:00N 49°57' W 003°15'611.8
2018-Apr-11 16:30N 49°58' W 003°06'611.7
2018-Apr-11 16:00N 49°59' W 002°57'611.7
2018-Apr-11 15:30N 50°01' W 002°48'611.8
2018-Apr-11 14:58N 50°02' W 002°39'612.0
2018-Apr-11 14:30N 50°04' W 002°30'612.3
2018-Apr-11 14:00N 50°06' W 002°21'612.7
2018-Apr-11 13:30N 50°07' W 002°12'613.1
2018-Apr-11 13:01N 50°09' W 002°02'713.6
2018-Apr-11 12:30N 50°11' W 001°52'714.0
2018-Apr-11 12:00N 50°12' W 001°41'714.3
2018-Apr-11 11:30N 50°14' W 001°30'714.5
2018-Apr-11 11:00N 50°16' W 001°19'714.6
2018-Apr-11 10:30N 50°18' W 001°08'714.5
2018-Apr-11 10:00N 50°20' W 000°57'714.0
2018-Apr-11 09:30N 50°22' W 000°47'713.5
2018-Apr-11 09:00N 50°24' W 000°36'713.2
2018-Apr-11 08:30N 50°25' W 000°26'612.9
2018-Apr-11 08:00N 50°27' W 000°17'612.5
2018-Apr-11 07:30N 50°29' W 000°07'612.1
2018-Apr-11 07:00N 50°30' E 000°02'611.9
2018-Apr-11 06:30N 50°32' E 000°11'611.6
2018-Apr-11 06:01N 50°33' E 000°20'611.7
2018-Apr-11 05:31N 50°35' E 000°29'611.6
2018-Apr-11 05:01N 50°37' E 000°37'612.0
2018-Apr-11 04:31N 50°40' E 000°45'612.3
2018-Apr-11 04:00N 50°44' E 000°53'612.7
2018-Apr-11 03:31N 50°47' E 001°01'713.1
2018-Apr-11 02:59N 50°51' E 001°11'613.4
2018-Apr-11 02:31N 50°55' E 001°19'714.3
2018-Apr-11 02:00N 51°00' E 001°26'714.0
2018-Apr-11 01:30N 51°05' E 001°34'713.5
2018-Apr-11 01:00N 51°10' E 001°41'713.4
2018-Apr-11 00:30N 51°15' E 001°49'713.0
2018-Apr-11 00:00N 51°21' E 001°54'611.7
2018-Apr-10 23:30N 51°25' E 001°60'612.1
2018-Apr-10 23:01N 51°23' E 002°09'612.2
2018-Apr-10 22:30N 51°20' E 002°18'612.1
2018-Apr-10 21:59N 51°22' E 002°28'612.1
2018-Apr-10 21:29N 51°23' E 002°37'611.4
2018-Apr-10 21:00N 51°24' E 002°46'610.7
2018-Apr-10 20:29N 51°25' E 002°55'611.7
2018-Apr-10 20:00N 51°24' E 003°04'611.0
2018-Apr-10 19:30N 51°24' E 003°12'510.8
2018-Apr-10 19:00N 51°24' E 003°21'611.1
2018-Apr-10 18:30N 51°25' E 003°30'5 9.8
2018-Apr-10 18:00N 51°26' E 003°38'5 9.2
2018-Apr-10 17:30N 51°23' E 003°43'611.1
2018-Apr-10 17:00N 51°21' E 003°51'611.1
2018-Apr-10 16:30N 51°25' E 003°57'3 6.0
2018-Apr-10 16:00N 51°24' E 004°02'5 9.9
2018-Apr-10 15:30N 51°23' E 004°10'4 8.0
2018-Apr-10 15:00N 51°21' E 004°15'1 2.6
2018-Apr-10 14:30N 51°21' E 004°17'0 0.0
2018-Apr-10 14:00N 51°21' E 004°17'0 0.0
2018-Apr-10 13:31N 51°21' E 004°17'0 0.3
2018-Apr-10 13:00N 51°21' E 004°18'2 3.8
2018-Apr-10 12:30N 51°19' E 004°19'2 3.1
2018-Apr-10 12:00N 51°17' E 004°20'0 0.0
2018-Apr-10 11:30N 51°17' E 004°20'0 0.0
2018-Apr-10 10:57N 51°17' E 004°20'0 0.0
2018-Apr-10 10:30N 51°18' E 004°20'0 0.0
2018-Apr-10 10:00N 51°18' E 004°20'0 0.0
2018-Apr-10 09:30N 51°18' E 004°20'0 0.0
2018-Apr-10 09:00N 51°17' E 004°20'0 0.0
2018-Apr-10 08:30N 51°17' E 004°20'0 0.0
2018-Apr-10 08:00N 51°17' E 004°20'0 0.0
2018-Apr-10 07:30N 51°17' E 004°20'0 0.0
2018-Apr-10 07:00N 51°18' E 004°20'0 0.0
2018-Apr-10 06:30N 51°17' E 004°20'0 0.0
2018-Apr-10 06:00N 51°18' E 004°20'0 0.0
2018-Apr-10 05:30N 51°18' E 004°20'0 0.0
2018-Apr-10 05:00N 51°18' E 004°20'0 0.0
2018-Apr-10 04:30N 51°17' E 004°20'0 0.0
2018-Apr-10 04:00N 51°17' E 004°20'0 0.0
2018-Apr-10 03:30N 51°18' E 004°20'0 0.0
2018-Apr-10 02:57N 51°17' E 004°20'0 0.0
2018-Apr-10 02:30N 51°18' E 004°20'0 0.0
2018-Apr-10 01:57N 51°18' E 004°20'0 0.0
2018-Apr-10 01:30N 51°18' E 004°20'0 0.0
2018-Apr-10 00:54N 51°17' E 004°20'0 0.0
2018-Apr-10 00:24N 51°17' E 004°20'0 0.0
2018-Apr-10 00:00N 51°17' E 004°20'0 0.0
2018-Apr-09 23:30N 51°18' E 004°20'0 0.0
2018-Apr-09 23:00N 51°17' E 004°20'0 0.0
2018-Apr-09 22:30N 51°18' E 004°20'0 0.0
2018-Apr-09 21:57N 51°17' E 004°20'0 0.0
2018-Apr-09 21:27N 51°17' E 004°20'0 0.0
2018-Apr-09 21:00N 51°18' E 004°20'0 0.0
2018-Apr-09 20:30N 51°17' E 004°20'0 0.0
2018-Apr-09 20:00N 51°18' E 004°20'0 0.0
2018-Apr-09 19:30N 51°17' E 004°20'0 0.0
2018-Apr-09 18:54N 51°18' E 004°20'0 0.0
2018-Apr-09 18:30N 51°17' E 004°20'0 0.0
2018-Apr-09 18:00N 51°17' E 004°20'0 0.0
2018-Apr-09 17:27N 51°17' E 004°20'0 0.0
2018-Apr-09 16:57N 51°17' E 004°20'0 0.0
2018-Apr-09 16:30N 51°17' E 004°20'0 0.0
2018-Apr-09 16:00N 51°17' E 004°20'0 0.0
2018-Apr-09 15:30N 51°17' E 004°20'0 0.0
2018-Apr-09 15:00N 51°17' E 004°20'0 0.0
2018-Apr-09 14:30N 51°17' E 004°20'0 0.0
2018-Apr-09 14:00N 51°18' E 004°20'0 0.0
2018-Apr-09 13:30N 51°17' E 004°20'0 0.0
2018-Apr-09 12:57N 51°17' E 004°20'0 0.0
2018-Apr-09 12:30N 51°17' E 004°20'0 0.0
2018-Apr-09 12:00N 51°18' E 004°20'0 0.0
2018-Apr-09 11:30N 51°18' E 004°20'0 0.0
2018-Apr-09 11:00N 51°17' E 004°20'0 0.0
2018-Apr-09 10:27N 51°18' E 004°20'0 0.0
2018-Apr-09 09:59N 51°17' E 004°20'0 0.0
2018-Apr-09 09:29N 51°18' E 004°20'0 0.0
2018-Apr-09 08:56N 51°17' E 004°20'0 0.0
2018-Apr-09 08:29N 51°17' E 004°20'0 0.0
2018-Apr-09 08:00N 51°17' E 004°20'1 1.2
2018-Apr-09 07:30N 51°17' E 004°21'1 3.0
2018-Apr-09 07:00N 51°18' E 004°19'2 4.2
2018-Apr-09 06:27N 51°20' E 004°18'0 0.2
2018-Apr-09 06:00N 51°20' E 004°18'0 0.0
2018-Apr-09 05:30N 51°20' E 004°18'0 0.0
2018-Apr-09 04:57N 51°20' E 004°18'0 0.0
2018-Apr-09 04:30N 51°20' E 004°18'0 0.0
2018-Apr-09 03:57N 51°20' E 004°18'0 0.0
2018-Apr-09 03:24N 51°20' E 004°18'0 0.0
2018-Apr-09 02:57N 51°20' E 004°18'0 0.0
2018-Apr-09 02:30N 51°20' E 004°18'0 0.0
2018-Apr-09 02:00N 51°20' E 004°18'0 0.0
2018-Apr-09 01:21N 51°20' E 004°18'0 0.0
2018-Apr-09 01:00N 51°20' E 004°18'0 0.0
2018-Apr-09 00:27N 51°20' E 004°18'0 0.0
2018-Apr-09 00:00N 51°20' E 004°18'0 0.0
2018-Apr-08 23:30N 51°20' E 004°18'0 0.0
2018-Apr-08 22:57N 51°20' E 004°18'0 0.0
2018-Apr-08 22:30N 51°20' E 004°18'0 0.0
2018-Apr-08 22:00N 51°20' E 004°18'0 0.0
2018-Apr-08 21:30N 51°20' E 004°18'0 0.0
2018-Apr-08 21:00N 51°20' E 004°18'0 0.0
2018-Apr-08 20:30N 51°20' E 004°18'0 0.0
2018-Apr-08 20:00N 51°20' E 004°18'0 0.0
2018-Apr-08 19:30N 51°20' E 004°18'0 0.0
2018-Apr-08 18:57N 51°20' E 004°18'0 0.0
2018-Apr-08 18:27N 51°20' E 004°18'0 0.0
2018-Apr-08 18:00N 51°20' E 004°18'0 0.0
2018-Apr-08 17:30N 51°20' E 004°18'0 0.0
2018-Apr-08 17:00N 51°20' E 004°18'0 0.0
2018-Apr-08 16:30N 51°20' E 004°18'0 0.0
2018-Apr-08 16:00N 51°20' E 004°18'0 0.0
2018-Apr-08 15:27N 51°20' E 004°18'0 0.0
2018-Apr-08 15:00N 51°20' E 004°18'0 0.0
2018-Apr-08 14:27N 51°20' E 004°18'0 0.0
2018-Apr-08 13:54N 51°20' E 004°18'0 0.0
2018-Apr-08 13:30N 51°20' E 004°18'0 0.0
2018-Apr-08 13:00N 51°20' E 004°18'0 0.0
2018-Apr-08 12:27N 51°20' E 004°18'0 0.0
2018-Apr-08 12:00N 51°20' E 004°18'0 0.0
2018-Apr-08 11:27N 51°20' E 004°18'0 0.0
2018-Apr-08 11:00N 51°20' E 004°18'0 0.0
2018-Apr-08 10:30N 51°20' E 004°18'0 0.0
2018-Apr-08 10:00N 51°20' E 004°18'0 0.0
2018-Apr-08 08:48N 51°20' E 004°18'0 0.0
2018-Apr-08 08:30N 51°20' E 004°18'0 0.0
2018-Apr-08 08:00N 51°20' E 004°18'0 0.0
2018-Apr-08 07:30N 51°20' E 004°18'0 0.0
2018-Apr-08 07:00N 51°20' E 004°18'0 0.0
2018-Apr-08 06:30N 51°20' E 004°18'0 0.0
2018-Apr-08 06:00N 51°20' E 004°18'0 0.0
2018-Apr-08 05:30N 51°20' E 004°18'0 0.0
2018-Apr-08 04:57N 51°20' E 004°18'0 0.0
2018-Apr-08 04:27N 51°20' E 004°18'0 0.0
2018-Apr-08 04:00N 51°20' E 004°18'0 0.0
2018-Apr-08 03:27N 51°20' E 004°18'0 0.0
2018-Apr-08 02:57N 51°20' E 004°18'0 0.0
2018-Apr-08 02:30N 51°20' E 004°18'0 0.0
2018-Apr-08 01:57N 51°20' E 004°18'0 0.0
2018-Apr-08 01:30N 51°20' E 004°18'0 0.0
2018-Apr-08 01:00N 51°20' E 004°18'0 0.0
2018-Apr-08 00:27N 51°20' E 004°18'0 0.0
2018-Apr-08 00:00N 51°20' E 004°18'0 0.0
2018-Apr-07 23:30N 51°20' E 004°18'0 0.0
2018-Apr-07 22:51N 51°20' E 004°18'0 0.0
2018-Apr-07 22:30N 51°20' E 004°18'0 0.0
2018-Apr-07 22:00N 51°20' E 004°18'0 0.0
2018-Apr-07 21:30N 51°20' E 004°18'0 0.0
2018-Apr-07 20:57N 51°20' E 004°18'0 0.0
2018-Apr-07 20:24N 51°20' E 004°18'0 0.0
2018-Apr-07 19:54N 51°20' E 004°18'0 0.0
2018-Apr-07 19:27N 51°20' E 004°18'0 0.0
2018-Apr-07 18:57N 51°20' E 004°18'0 0.0
2018-Apr-07 18:24N 51°20' E 004°18'0 0.0
2018-Apr-07 18:00N 51°20' E 004°18'0 0.0
2018-Apr-07 17:30N 51°20' E 004°18'0 0.0
2018-Apr-07 17:00N 51°20' E 004°18'0 0.0
2018-Apr-07 16:27N 51°20' E 004°18'0 0.0
2018-Apr-07 16:00N 51°20' E 004°18'0 0.0
2018-Apr-07 15:27N 51°20' E 004°18'0 0.0
2018-Apr-07 14:51N 51°20' E 004°18'0 0.0
2018-Apr-07 14:27N 51°20' E 004°18'0 0.0
2018-Apr-07 14:00N 51°20' E 004°18'0 0.0
2018-Apr-07 13:27N 51°20' E 004°18'0 0.0
2018-Apr-07 12:57N 51°20' E 004°18'0 0.0
2018-Apr-07 12:27N 51°20' E 004°18'0 0.0
2018-Apr-07 12:00N 51°20' E 004°18'0 0.0
2018-Apr-07 11:30N 51°20' E 004°18'0 0.0
2018-Apr-07 11:00N 51°20' E 004°18'0 0.0
2018-Apr-07 10:24N 51°20' E 004°18'0 0.0
2018-Apr-07 10:00N 51°20' E 004°18'0 0.0
2018-Apr-07 09:30N 51°20' E 004°18'0 0.0
2018-Apr-07 09:00N 51°20' E 004°18'0 0.0
2018-Apr-07 08:30N 51°20' E 004°18'0 0.0
2018-Apr-07 08:00N 51°20' E 004°18'0 0.0
2018-Apr-07 07:24N 51°20' E 004°18'0 0.0
2018-Apr-07 07:00N 51°20' E 004°18'0 0.0
2018-Apr-07 06:27N 51°20' E 004°18'0 0.0
2018-Apr-07 05:57N 51°20' E 004°18'0 0.0
2018-Apr-07 05:30N 51°20' E 004°18'0 0.0
2018-Apr-07 05:00N 51°20' E 004°18'0 0.0
2018-Apr-07 04:30N 51°20' E 004°18'0 0.0
2018-Apr-07 03:57N 51°20' E 004°18'0 0.0
2018-Apr-07 03:30N 51°20' E 004°18'0 0.0
2018-Apr-07 03:00N 51°20' E 004°18'0 0.0
2018-Apr-07 02:27N 51°20' E 004°18'0 0.0
2018-Apr-07 02:00N 51°20' E 004°18'0 0.0
2018-Apr-07 01:30N 51°20' E 004°18'0 0.0
2018-Apr-07 01:00N 51°20' E 004°18'0 0.0
2018-Apr-07 00:30N 51°20' E 004°18'0 0.1
2018-Apr-07 00:00N 51°20' E 004°18'0 0.3
2018-Apr-06 23:30N 51°20' E 004°18'1 1.1
2018-Apr-06 23:01N 51°21' E 004°17'0 0.0
2018-Apr-06 22:30N 51°21' E 004°17'0 0.1
2018-Apr-06 22:01N 51°21' E 004°17'1 3.0
2018-Apr-06 21:30N 51°21' E 004°15'3 5.9
2018-Apr-06 21:01N 51°24' E 004°12'5 9.5
2018-Apr-06 20:30N 51°22' E 004°05'5 9.2
2018-Apr-06 20:00N 51°26' E 004°01'4 8.0
2018-Apr-06 19:30N 51°23' E 003°57'5 9.6
2018-Apr-06 19:00N 51°21' E 003°50'5 9.9
2018-Apr-06 18:30N 51°23' E 003°43'5 9.7
2018-Apr-06 18:00N 51°26' E 003°37'4 7.4
2018-Apr-06 17:30N 51°25' E 003°31'612.1
2018-Apr-06 17:00N 51°24' E 003°21'612.3
2018-Apr-06 16:30N 51°24' E 003°11'612.0
2018-Apr-06 16:00N 51°24' E 003°02'611.6
2018-Apr-06 15:30N 51°25' E 002°53'511.0
2018-Apr-06 15:00N 51°24' E 002°44'3 6.5
2018-Apr-06 14:29N 51°26' E 002°40'3 5.4
2018-Apr-06 13:57N 51°27' E 002°36'0 0.0
2018-Apr-06 13:30N 51°27' E 002°36'0 0.0
2018-Apr-06 12:54N 51°27' E 002°36'0 0.0
2018-Apr-06 12:29N 51°27' E 002°36'0 0.0
2018-Apr-06 12:00N 51°27' E 002°36'0 0.0
2018-Apr-06 11:21N 51°27' E 002°36'0 0.0
2018-Apr-06 10:57N 51°27' E 002°36'0 0.1
2018-Apr-06 10:29N 51°27' E 002°36'0 0.0
2018-Apr-06 09:59N 51°27' E 002°36'0 0.0
2018-Apr-06 09:20N 51°27' E 002°36'0 0.1
2018-Apr-06 09:00N 51°27' E 002°36'0 0.0
2018-Apr-06 08:21N 51°27' E 002°36'0 0.0
2018-Apr-06 08:00N 51°27' E 002°36'0 0.0
2018-Apr-06 06:59N 51°27' E 002°36'0 0.1
2018-Apr-06 06:30N 51°27' E 002°36'0 0.0
2018-Apr-06 05:56N 51°27' E 002°36'0 0.0
2018-Apr-06 05:26N 51°27' E 002°36'0 0.0
2018-Apr-06 04:48N 51°27' E 002°36'0 0.0
2018-Apr-06 04:21N 51°27' E 002°36'0 0.0
2018-Apr-06 03:54N 51°27' E 002°36'0 0.0
2018-Apr-06 03:27N 51°27' E 002°36'0 0.0
2018-Apr-06 02:51N 51°27' E 002°36'0 0.1
2018-Apr-06 02:30N 51°27' E 002°36'0 0.2
2018-Apr-06 02:00N 51°27' E 002°36'0 0.1
2018-Apr-06 01:29N 51°27' E 002°36'0 0.0
2018-Apr-06 01:00N 51°27' E 002°36'0 0.1
2018-Apr-06 00:30N 51°27' E 002°36'0 0.0
2018-Apr-05 23:59N 51°27' E 002°36'0 0.0
2018-Apr-05 23:29N 51°27' E 002°36'0 0.0
2018-Apr-05 23:00N 51°27' E 002°36'0 0.0
2018-Apr-05 22:29N 51°27' E 002°36'0 0.0
2018-Apr-05 21:59N 51°27' E 002°36'0 0.0
2018-Apr-05 21:26N 51°27' E 002°36'0 0.0
2018-Apr-05 21:00N 51°27' E 002°36'0 0.0
2018-Apr-05 20:27N 51°27' E 002°36'0 0.1
2018-Apr-05 20:00N 51°27' E 002°36'0 0.2
2018-Apr-05 19:29N 51°27' E 002°36'0 0.2
2018-Apr-05 18:56N 51°27' E 002°36'0 0.1
2018-Apr-05 18:26N 51°27' E 002°36'0 0.0
2018-Apr-05 17:57N 51°27' E 002°36'0 0.1
2018-Apr-05 17:29N 51°27' E 002°36'0 0.0
2018-Apr-05 17:00N 51°27' E 002°37'0 0.0
2018-Apr-05 16:30N 51°27' E 002°37'0 0.0
2018-Apr-05 15:59N 51°27' E 002°37'0 0.1
2018-Apr-05 15:20N 51°27' E 002°37'0 0.1
2018-Apr-05 14:59N 51°27' E 002°37'0 0.1
2018-Apr-05 14:29N 51°27' E 002°37'0 0.1
2018-Apr-05 14:00N 51°27' E 002°36'0 0.1
2018-Apr-05 13:29N 51°27' E 002°36'0 0.1
2018-Apr-05 12:57N 51°27' E 002°36'0 0.0
2018-Apr-05 12:30N 51°27' E 002°36'0 0.0
2018-Apr-05 12:00N 51°27' E 002°36'0 0.0
2018-Apr-05 11:30N 51°27' E 002°36'0 0.0
2018-Apr-05 11:00N 51°27' E 002°36'0 0.0
2018-Apr-05 10:29N 51°27' E 002°36'0 0.0
2018-Apr-05 09:59N 51°27' E 002°36'0 0.1
2018-Apr-05 09:30N 51°27' E 002°36'0 0.0
2018-Apr-05 09:00N 51°27' E 002°36'0 0.0
2018-Apr-05 08:29N 51°27' E 002°36'0 0.0
2018-Apr-05 08:00N 51°27' E 002°36'0 0.2
2018-Apr-05 07:30N 51°27' E 002°37'0 0.0
2018-Apr-05 07:00N 51°27' E 002°37'0 0.1
2018-Apr-05 06:26N 51°27' E 002°37'0 0.0
2018-Apr-05 05:59N 51°27' E 002°37'0 0.0
2018-Apr-05 05:30N 51°27' E 002°37'0 0.0
2018-Apr-05 05:00N 51°27' E 002°37'0 0.1
2018-Apr-05 04:30N 51°27' E 002°37'0 0.1
2018-Apr-05 03:59N 51°27' E 002°37'0 0.0
2018-Apr-05 03:21N 51°27' E 002°37'0 0.1
2018-Apr-05 02:54N 51°27' E 002°37'0 0.1
2018-Apr-05 02:27N 51°27' E 002°37'0 0.0
2018-Apr-05 01:54N 51°27' E 002°37'0 0.0
2018-Apr-05 01:20N 51°27' E 002°37'0 0.0
2018-Apr-05 00:56N 51°27' E 002°37'0 0.1
2018-Apr-05 00:30N 51°27' E 002°37'0 0.2
2018-Apr-04 23:56N 51°27' E 002°36'0 0.1
2018-Apr-04 23:30N 51°27' E 002°36'0 0.2
2018-Apr-04 22:59N 51°27' E 002°36'0 0.2
2018-Apr-04 22:29N 51°27' E 002°36'0 0.1
2018-Apr-04 21:53N 51°27' E 002°36'0 0.1
2018-Apr-04 21:24N 51°27' E 002°36'0 0.1
2018-Apr-04 20:57N 51°27' E 002°36'0 0.0
2018-Apr-04 20:30N 51°27' E 002°36'0 0.0
2018-Apr-04 19:59N 51°27' E 002°36'0 0.0
2018-Apr-04 19:29N 51°27' E 002°36'0 0.0
2018-Apr-04 18:59N 51°27' E 002°36'0 0.0
2018-Apr-04 18:30N 51°27' E 002°36'0 0.1
2018-Apr-04 17:59N 51°27' E 002°36'0 0.1
2018-Apr-04 17:29N 51°27' E 002°36'0 0.7
2018-Apr-04 16:51N 51°28' E 002°37'1 3.2
2018-Apr-04 16:30N 51°28' E 002°38'2 2.6
2018-Apr-04 15:48N 51°29' E 002°41'1 3.0
2018-Apr-04 15:29N 51°30' E 002°41'2 5.1
2018-Apr-04 15:00N 51°32' E 002°42'611.4
2018-Apr-04 14:30N 51°38' E 002°40'712.4
2018-Apr-04 13:56N 51°45' E 002°39'3812.8
2018-Apr-04 10:57N 52°07' E 003°29'3 6.5
2018-Apr-04 10:27N 52°09' E 003°33'0 0.1
2018-Apr-04 10:00N 52°09' E 003°33'0 0.2
2018-Apr-04 09:27N 52°09' E 003°33'0 0.1
2018-Apr-04 08:57N 52°09' E 003°33'0 0.1
2018-Apr-04 08:27N 52°09' E 003°33'0 0.0
2018-Apr-04 07:57N 52°09' E 003°33'0 0.0
2018-Apr-04 07:30N 52°09' E 003°33'0 0.0
2018-Apr-04 06:54N 52°09' E 003°33'0 0.0
2018-Apr-04 06:09N 52°09' E 003°33'0 0.1
2018-Apr-04 06:00N 52°09' E 003°33'0 0.0
2018-Apr-04 05:24N 52°09' E 003°33'0 0.0
2018-Apr-04 05:00N 52°09' E 003°33'0 0.0
2018-Apr-04 04:27N 52°09' E 003°33'0 0.0
2018-Apr-04 04:00N 52°09' E 003°33'0 0.0
2018-Apr-04 03:30N 52°09' E 003°33'0 0.0
2018-Apr-04 02:57N 52°09' E 003°33'0 0.0
2018-Apr-04 02:30N 52°09' E 003°33'0 0.1
2018-Apr-04 02:00N 52°09' E 003°33'0 0.3
2018-Apr-04 01:30N 52°09' E 003°33'0 0.2
2018-Apr-04 01:00N 52°09' E 003°33'0 0.0
2018-Apr-04 00:30N 52°09' E 003°33'1 1.0
2018-Apr-04 00:00N 52°09' E 003°33'1 2.8
2018-Apr-03 23:29N 52°07' E 003°35'3 5.5
2018-Apr-03 23:00N 52°06' E 003°38'4 7.0
2018-Apr-03 22:30N 52°05' E 003°44'5 9.5
2018-Apr-03 22:00N 52°03' E 003°51'4 8.7
2018-Apr-03 21:31N 52°01' E 003°57'612.7
2018-Apr-03 21:00N 51°58' E 004°06'4 7.2
2018-Apr-03 20:30N 51°56' E 004°11'1 1.0
2018-Apr-03 19:59N 51°56' E 004°12'0 0.0
2018-Apr-03 19:29N 51°56' E 004°12'0 0.0
2018-Apr-03 18:59N 51°56' E 004°12'0 0.0
2018-Apr-03 18:29N 51°56' E 004°12'0 0.0
2018-Apr-03 17:59N 51°56' E 004°12'0 0.0
2018-Apr-03 17:29N 51°56' E 004°12'0 0.0
2018-Apr-03 16:59N 51°56' E 004°12'0 0.0
2018-Apr-03 16:29N 51°56' E 004°12'0 0.0
2018-Apr-03 15:59N 51°56' E 004°12'0 0.0
2018-Apr-03 15:29N 51°56' E 004°12'0 0.0
2018-Apr-03 14:59N 51°56' E 004°12'0 0.0
2018-Apr-03 14:29N 51°56' E 004°12'0 0.0
2018-Apr-03 13:59N 51°56' E 004°12'0 0.0
2018-Apr-03 13:29N 51°56' E 004°12'0 0.0
2018-Apr-03 12:56N 51°56' E 004°12'0 0.0
2018-Apr-03 12:29N 51°56' E 004°12'0 0.0
2018-Apr-03 11:59N 51°56' E 004°12'0 0.0
2018-Apr-03 11:29N 51°56' E 004°12'0 0.0
2018-Apr-03 10:59N 51°56' E 004°12'0 0.0
2018-Apr-03 10:29N 51°56' E 004°12'0 0.0
2018-Apr-03 09:59N 51°56' E 004°12'0 0.0
2018-Apr-03 09:29N 51°56' E 004°12'0 0.0
2018-Apr-03 08:59N 51°56' E 004°12'0 0.0
2018-Apr-03 08:29N 51°56' E 004°12'0 0.0
2018-Apr-03 07:59N 51°56' E 004°12'0 0.0
2018-Apr-03 07:29N 51°56' E 004°12'0 0.0
2018-Apr-03 06:59N 51°56' E 004°12'0 0.0
2018-Apr-03 06:29N 51°56' E 004°12'0 0.0
2018-Apr-03 05:59N 51°56' E 004°12'0 0.0
2018-Apr-03 05:29N 51°56' E 004°12'0 0.0
2018-Apr-03 04:59N 51°56' E 004°12'0 0.0
2018-Apr-03 04:29N 51°56' E 004°12'0 0.0
2018-Apr-03 03:59N 51°56' E 004°12'0 0.0
2018-Apr-03 03:29N 51°56' E 004°12'0 0.0
2018-Apr-03 02:59N 51°56' E 004°12'0 0.0
2018-Apr-03 02:29N 51°56' E 004°12'0 0.0
2018-Apr-03 01:59N 51°56' E 004°12'0 0.0
2018-Apr-03 01:29N 51°56' E 004°12'0 0.0
2018-Apr-03 00:59N 51°56' E 004°12'0 0.0
2018-Apr-03 00:29N 51°56' E 004°12'0 0.0
2018-Apr-02 23:59N 51°56' E 004°12'0 0.0
2018-Apr-02 23:29N 51°56' E 004°12'0 0.0
2018-Apr-02 22:59N 51°56' E 004°12'0 0.0
2018-Apr-02 22:29N 51°56' E 004°12'0 0.0
2018-Apr-02 21:59N 51°56' E 004°12'0 0.0
2018-Apr-02 21:29N 51°56' E 004°12'0 0.0
2018-Apr-02 20:59N 51°56' E 004°12'0 0.0
2018-Apr-02 20:29N 51°56' E 004°12'0 0.0
2018-Apr-02 19:59N 51°56' E 004°12'0 0.0
2018-Apr-02 19:29N 51°56' E 004°12'0 0.0
2018-Apr-02 18:59N 51°56' E 004°12'0 0.0
2018-Apr-02 18:29N 51°56' E 004°12'0 0.0
2018-Apr-02 17:59N 51°56' E 004°12'0 0.0
2018-Apr-02 17:29N 51°56' E 004°12'0 0.0
2018-Apr-02 16:59N 51°56' E 004°12'0 0.0
2018-Apr-02 16:29N 51°56' E 004°12'0 0.0
2018-Apr-02 15:59N 51°56' E 004°12'0 0.0
2018-Apr-02 15:29N 51°56' E 004°12'0 0.0
2018-Apr-02 14:59N 51°56' E 004°12'0 0.0
2018-Apr-02 14:29N 51°56' E 004°12'0 0.0
2018-Apr-02 13:59N 51°56' E 004°12'0 0.0
2018-Apr-02 13:29N 51°56' E 004°12'0 0.0
2018-Apr-02 12:59N 51°56' E 004°12'0 0.0
2018-Apr-02 12:29N 51°56' E 004°12'0 0.0
2018-Apr-02 11:59N 51°56' E 004°12'0 0.0
2018-Apr-02 11:29N 51°56' E 004°12'0 0.0
2018-Apr-02 10:59N 51°56' E 004°12'0 0.0
2018-Apr-02 10:29N 51°56' E 004°12'0 0.0
2018-Apr-02 09:59N 51°56' E 004°12'0 0.0
2018-Apr-02 09:29N 51°56' E 004°12'0 0.0
2018-Apr-02 08:59N 51°56' E 004°12'0 0.0
2018-Apr-02 08:29N 51°56' E 004°12'0 0.0
2018-Apr-02 07:59N 51°56' E 004°12'0 0.0
2018-Apr-02 07:29N 51°56' E 004°12'0 0.0
2018-Apr-02 06:56N 51°56' E 004°12'0 0.0
2018-Apr-02 06:29N 51°56' E 004°12'0 0.0
2018-Apr-02 05:59N 51°56' E 004°12'0 0.0
2018-Apr-02 05:29N 51°56' E 004°12'0 0.0
2018-Apr-02 04:59N 51°56' E 004°12'0 0.0
2018-Apr-02 04:29N 51°56' E 004°12'0 0.0
2018-Apr-02 03:59N 51°56' E 004°12'0 0.0
2018-Apr-02 03:29N 51°56' E 004°12'0 0.0
2018-Apr-02 02:59N 51°56' E 004°12'0 0.0
2018-Apr-02 02:29N 51°56' E 004°12'0 0.0
2018-Apr-02 01:59N 51°56' E 004°12'0 0.0
2018-Apr-02 01:29N 51°56' E 004°12'0 0.0
2018-Apr-02 00:59N 51°56' E 004°12'0 0.0
2018-Apr-02 00:29N 51°56' E 004°12'0 0.0
2018-Apr-01 23:59N 51°56' E 004°12'0 0.0
2018-Apr-01 23:29N 51°56' E 004°12'0 0.0
2018-Apr-01 22:59N 51°56' E 004°12'0 0.0
2018-Apr-01 22:29N 51°56' E 004°12'0 0.0
2018-Apr-01 21:59N 51°56' E 004°12'0 0.0
2018-Apr-01 21:29N 51°56' E 004°12'0 0.0
2018-Apr-01 20:59N 51°56' E 004°12'0 0.0
2018-Apr-01 20:23N 51°56' E 004°12'0 0.0
2018-Apr-01 19:59N 51°56' E 004°12'0 0.0
2018-Apr-01 19:29N 51°56' E 004°12'0 0.0
2018-Apr-01 18:59N 51°56' E 004°12'  
Track history (hours):
 
Tides and Currents Weather Stations Pressure Air Temp Water Temp Dewpoint Dewpoint Depression Visibility Wind Speed Wind Dir Waves Ship Positions

Minerva Atlantica

Last reported at 2018-Apr-11 18:46 UTC. Time now 2018-Apr-24 14:17 UTC.
Position N 49°52' W 003°47'.
Warning: this ship's position is 12 days out of date.

Length 250 m; draft 12.2 m.

Type: Tanker. MMSI: 319161000.

Date/timePositionNaut miles runAvg speedWind from/ knotsBaromVisibWave heightAir tempDewpointWater temp
2018-Apr-11 18:46N 49°52' W 003°47'712.4
2018-Apr-11 18:13N 49°54' W 003°37'612.2
2018-Apr-11 17:45N 49°55' W 003°28'312.0
2018-Apr-11 17:30N 49°56' W 003°24'611.9
2018-Apr-11 17:00N 49°57' W 003°15'611.8
2018-Apr-11 16:30N 49°58' W 003°06'611.7
2018-Apr-11 16:00N 49°59' W 002°57'611.7
2018-Apr-11 15:30N 50°01' W 002°48'611.8
2018-Apr-11 14:58N 50°02' W 002°39'612.0
2018-Apr-11 14:30N 50°04' W 002°30'612.3
2018-Apr-11 14:00N 50°06' W 002°21'612.7
2018-Apr-11 13:30N 50°07' W 002°12'613.1
2018-Apr-11 13:01N 50°09' W 002°02'713.6
2018-Apr-11 12:30N 50°11' W 001°52'714.0
2018-Apr-11 12:00N 50°12' W 001°41'714.3
2018-Apr-11 11:30N 50°14' W 001°30'714.5
2018-Apr-11 11:00N 50°16' W 001°19'714.6
2018-Apr-11 10:30N 50°18' W 001°08'714.5
2018-Apr-11 10:00N 50°20' W 000°57'714.0
2018-Apr-11 09:30N 50°22' W 000°47'713.5
2018-Apr-11 09:00N 50°24' W 000°36'713.2
2018-Apr-11 08:30N 50°25' W 000°26'612.9
2018-Apr-11 08:00N 50°27' W 000°17'612.5
2018-Apr-11 07:30N 50°29' W 000°07'612.1
2018-Apr-11 07:00N 50°30' E 000°02'611.9
2018-Apr-11 06:30N 50°32' E 000°11'611.6
2018-Apr-11 06:01N 50°33' E 000°20'611.7
2018-Apr-11 05:31N 50°35' E 000°29'611.6
2018-Apr-11 05:01N 50°37' E 000°37'612.0
2018-Apr-11 04:31N 50°40' E 000°45'612.3
2018-Apr-11 04:00N 50°44' E 000°53'612.7
2018-Apr-11 03:31N 50°47' E 001°01'713.1
2018-Apr-11 02:59N 50°51' E 001°11'613.4
2018-Apr-11 02:31N 50°55' E 001°19'714.3
2018-Apr-11 02:00N 51°00' E 001°26'714.0
2018-Apr-11 01:30N 51°05' E 001°34'713.5
2018-Apr-11 01:00N 51°10' E 001°41'713.4
2018-Apr-11 00:30N 51°15' E 001°49'713.0
2018-Apr-11 00:00N 51°21' E 001°54'611.7
2018-Apr-10 23:30N 51°25' E 001°60'612.1
2018-Apr-10 23:01N 51°23' E 002°09'612.2
2018-Apr-10 22:30N 51°20' E 002°18'612.1
2018-Apr-10 21:59N 51°22' E 002°28'612.1
2018-Apr-10 21:29N 51°23' E 002°37'611.4
2018-Apr-10 21:00N 51°24' E 002°46'610.7
2018-Apr-10 20:29N 51°25' E 002°55'611.7
2018-Apr-10 20:00N 51°24' E 003°04'611.0
2018-Apr-10 19:30N 51°24' E 003°12'510.8
2018-Apr-10 19:00N 51°24' E 003°21'611.1
2018-Apr-10 18:30N 51°25' E 003°30'5 9.8
2018-Apr-10 18:00N 51°26' E 003°38'5 9.2
2018-Apr-10 17:30N 51°23' E 003°43'611.1
2018-Apr-10 17:00N 51°21' E 003°51'611.1
2018-Apr-10 16:30N 51°25' E 003°57'3 6.0
2018-Apr-10 16:00N 51°24' E 004°02'5 9.9
2018-Apr-10 15:30N 51°23' E 004°10'4 8.0
2018-Apr-10 15:00N 51°21' E 004°15'1 2.6
2018-Apr-10 14:30N 51°21' E 004°17'0 0.0
2018-Apr-10 14:00N 51°21' E 004°17'0 0.0
2018-Apr-10 13:31N 51°21' E 004°17'0 0.3
2018-Apr-10 13:00N 51°21' E 004°18'2 3.8
2018-Apr-10 12:30N 51°19' E 004°19'2 3.1
2018-Apr-10 12:00N 51°17' E 004°20'0 0.0
2018-Apr-10 11:30N 51°17' E 004°20'0 0.0
2018-Apr-10 10:57N 51°17' E 004°20'0 0.0
2018-Apr-10 10:30N 51°18' E 004°20'0 0.0
2018-Apr-10 10:00N 51°18' E 004°20'0 0.0
2018-Apr-10 09:30N 51°18' E 004°20'0 0.0
2018-Apr-10 09:00N 51°17' E 004°20'0 0.0
2018-Apr-10 08:30N 51°17' E 004°20'0 0.0
2018-Apr-10 08:00N 51°17' E 004°20'0 0.0
2018-Apr-10 07:30N 51°17' E 004°20'0 0.0
2018-Apr-10 07:00N 51°18' E 004°20'0 0.0
2018-Apr-10 06:30N 51°17' E 004°20'0 0.0
2018-Apr-10 06:00N 51°18' E 004°20'0 0.0
2018-Apr-10 05:30N 51°18' E 004°20'0 0.0
2018-Apr-10 05:00N 51°18' E 004°20'0 0.0
2018-Apr-10 04:30N 51°17' E 004°20'0 0.0
2018-Apr-10 04:00N 51°17' E 004°20'0 0.0
2018-Apr-10 03:30N 51°18' E 004°20'0 0.0
2018-Apr-10 02:57N 51°17' E 004°20'0 0.0
2018-Apr-10 02:30N 51°18' E 004°20'0 0.0
2018-Apr-10 01:57N 51°18' E 004°20'0 0.0
2018-Apr-10 01:30N 51°18' E 004°20'0 0.0
2018-Apr-10 00:54N 51°17' E 004°20'0 0.0
2018-Apr-10 00:24N 51°17' E 004°20'0 0.0
2018-Apr-10 00:00N 51°17' E 004°20'0 0.0
2018-Apr-09 23:30N 51°18' E 004°20'0 0.0
2018-Apr-09 23:00N 51°17' E 004°20'0 0.0
2018-Apr-09 22:30N 51°18' E 004°20'0 0.0
2018-Apr-09 21:57N 51°17' E 004°20'0 0.0
2018-Apr-09 21:27N 51°17' E 004°20'0 0.0
2018-Apr-09 21:00N 51°18' E 004°20'0 0.0
2018-Apr-09 20:30N 51°17' E 004°20'0 0.0
2018-Apr-09 20:00N 51°18' E 004°20'0 0.0
2018-Apr-09 19:30N 51°17' E 004°20'0 0.0
2018-Apr-09 18:54N 51°18' E 004°20'0 0.0
2018-Apr-09 18:30N 51°17' E 004°20'0 0.0
2018-Apr-09 18:00N 51°17' E 004°20'0 0.0
2018-Apr-09 17:27N 51°17' E 004°20'0 0.0
2018-Apr-09 16:57N 51°17' E 004°20'0 0.0
2018-Apr-09 16:30N 51°17' E 004°20'0 0.0
2018-Apr-09 16:00N 51°17' E 004°20'0 0.0
2018-Apr-09 15:30N 51°17' E 004°20'0 0.0
2018-Apr-09 15:00N 51°17' E 004°20'0 0.0
2018-Apr-09 14:30N 51°17' E 004°20'0 0.0
2018-Apr-09 14:00N 51°18' E 004°20'0 0.0
2018-Apr-09 13:30N 51°17' E 004°20'0 0.0
2018-Apr-09 12:57N 51°17' E 004°20'0 0.0
2018-Apr-09 12:30N 51°17' E 004°20'0 0.0
2018-Apr-09 12:00N 51°18' E 004°20'0 0.0
2018-Apr-09 11:30N 51°18' E 004°20'0 0.0
2018-Apr-09 11:00N 51°17' E 004°20'0 0.0
2018-Apr-09 10:27N 51°18' E 004°20'0 0.0
2018-Apr-09 09:59N 51°17' E 004°20'0 0.0
2018-Apr-09 09:29N 51°18' E 004°20'0 0.0
2018-Apr-09 08:56N 51°17' E 004°20'0 0.0
2018-Apr-09 08:29N 51°17' E 004°20'0 0.0
2018-Apr-09 08:00N 51°17' E 004°20'1 1.2
2018-Apr-09 07:30N 51°17' E 004°21'1 3.0
2018-Apr-09 07:00N 51°18' E 004°19'2 4.2
2018-Apr-09 06:27N 51°20' E 004°18'0 0.2
2018-Apr-09 06:00N 51°20' E 004°18'0 0.0
2018-Apr-09 05:30N 51°20' E 004°18'0 0.0
2018-Apr-09 04:57N 51°20' E 004°18'0 0.0
2018-Apr-09 04:30N 51°20' E 004°18'0 0.0
2018-Apr-09 03:57N 51°20' E 004°18'0 0.0
2018-Apr-09 03:24N 51°20' E 004°18'0 0.0
2018-Apr-09 02:57N 51°20' E 004°18'0 0.0
2018-Apr-09 02:30N 51°20' E 004°18'0 0.0
2018-Apr-09 02:00N 51°20' E 004°18'0 0.0
2018-Apr-09 01:21N 51°20' E 004°18'0 0.0
2018-Apr-09 01:00N 51°20' E 004°18'0 0.0
2018-Apr-09 00:27N 51°20' E 004°18'0 0.0
2018-Apr-09 00:00N 51°20' E 004°18'0 0.0
2018-Apr-08 23:30N 51°20' E 004°18'0 0.0
2018-Apr-08 22:57N 51°20' E 004°18'0 0.0
2018-Apr-08 22:30N 51°20' E 004°18'0 0.0
2018-Apr-08 22:00N 51°20' E 004°18'0 0.0
2018-Apr-08 21:30N 51°20' E 004°18'0 0.0
2018-Apr-08 21:00N 51°20' E 004°18'0 0.0
2018-Apr-08 20:30N 51°20' E 004°18'0 0.0
2018-Apr-08 20:00N 51°20' E 004°18'0 0.0
2018-Apr-08 19:30N 51°20' E 004°18'0 0.0
2018-Apr-08 18:57N 51°20' E 004°18'0 0.0
2018-Apr-08 18:27N 51°20' E 004°18'0 0.0
2018-Apr-08 18:00N 51°20' E 004°18'0 0.0
2018-Apr-08 17:30N 51°20' E 004°18'0 0.0
2018-Apr-08 17:00N 51°20' E 004°18'0 0.0
2018-Apr-08 16:30N 51°20' E 004°18'0 0.0
2018-Apr-08 16:00N 51°20' E 004°18'0 0.0
2018-Apr-08 15:27N 51°20' E 004°18'0 0.0
2018-Apr-08 15:00N 51°20' E 004°18'0 0.0
2018-Apr-08 14:27N 51°20' E 004°18'0 0.0
2018-Apr-08 13:54N 51°20' E 004°18'0 0.0
2018-Apr-08 13:30N 51°20' E 004°18'0 0.0
2018-Apr-08 13:00N 51°20' E 004°18'0 0.0
2018-Apr-08 12:27N 51°20' E 004°18'0 0.0
2018-Apr-08 12:00N 51°20' E 004°18'0 0.0
2018-Apr-08 11:27N 51°20' E 004°18'0 0.0
2018-Apr-08 11:00N 51°20' E 004°18'0 0.0
2018-Apr-08 10:30N 51°20' E 004°18'0 0.0
2018-Apr-08 10:00N 51°20' E 004°18'0 0.0
2018-Apr-08 08:48N 51°20' E 004°18'0 0.0
2018-Apr-08 08:30N 51°20' E 004°18'0 0.0
2018-Apr-08 08:00N 51°20' E 004°18'0 0.0
2018-Apr-08 07:30N 51°20' E 004°18'0 0.0
2018-Apr-08 07:00N 51°20' E 004°18'0 0.0
2018-Apr-08 06:30N 51°20' E 004°18'0 0.0
2018-Apr-08 06:00N 51°20' E 004°18'0 0.0
2018-Apr-08 05:30N 51°20' E 004°18'0 0.0
2018-Apr-08 04:57N 51°20' E 004°18'0 0.0
2018-Apr-08 04:27N 51°20' E 004°18'0 0.0
2018-Apr-08 04:00N 51°20' E 004°18'0 0.0
2018-Apr-08 03:27N 51°20' E 004°18'0 0.0
2018-Apr-08 02:57N 51°20' E 004°18'0 0.0
2018-Apr-08 02:30N 51°20' E 004°18'0 0.0
2018-Apr-08 01:57N 51°20' E 004°18'0 0.0
2018-Apr-08 01:30N 51°20' E 004°18'0 0.0
2018-Apr-08 01:00N 51°20' E 004°18'0 0.0
2018-Apr-08 00:27N 51°20' E 004°18'0 0.0
2018-Apr-08 00:00N 51°20' E 004°18'0 0.0
2018-Apr-07 23:30N 51°20' E 004°18'0 0.0
2018-Apr-07 22:51N 51°20' E 004°18'0 0.0
2018-Apr-07 22:30N 51°20' E 004°18'0 0.0
2018-Apr-07 22:00N 51°20' E 004°18'0 0.0
2018-Apr-07 21:30N 51°20' E 004°18'0 0.0
2018-Apr-07 20:57N 51°20' E 004°18'0 0.0
2018-Apr-07 20:24N 51°20' E 004°18'0 0.0
2018-Apr-07 19:54N 51°20' E 004°18'0 0.0
2018-Apr-07 19:27N 51°20' E 004°18'0 0.0
2018-Apr-07 18:57N 51°20' E 004°18'0 0.0
2018-Apr-07 18:24N 51°20' E 004°18'0 0.0
2018-Apr-07 18:00N 51°20' E 004°18'0 0.0
2018-Apr-07 17:30N 51°20' E 004°18'0 0.0
2018-Apr-07 17:00N 51°20' E 004°18'0 0.0
2018-Apr-07 16:27N 51°20' E 004°18'0 0.0
2018-Apr-07 16:00N 51°20' E 004°18'0 0.0
2018-Apr-07 15:27N 51°20' E 004°18'0 0.0
2018-Apr-07 14:51N 51°20' E 004°18'0 0.0
2018-Apr-07 14:27N 51°20' E 004°18'0 0.0
2018-Apr-07 14:00N 51°20' E 004°18'0 0.0
2018-Apr-07 13:27N 51°20' E 004°18'0 0.0
2018-Apr-07 12:57N 51°20' E 004°18'0 0.0
2018-Apr-07 12:27N 51°20' E 004°18'0 0.0
2018-Apr-07 12:00N 51°20' E 004°18'0 0.0
2018-Apr-07 11:30N 51°20' E 004°18'0 0.0
2018-Apr-07 11:00N 51°20' E 004°18'0 0.0
2018-Apr-07 10:24N 51°20' E 004°18'0 0.0
2018-Apr-07 10:00N 51°20' E 004°18'0 0.0
2018-Apr-07 09:30N 51°20' E 004°18'0 0.0
2018-Apr-07 09:00N 51°20' E 004°18'0 0.0
2018-Apr-07 08:30N 51°20' E 004°18'0 0.0
2018-Apr-07 08:00N 51°20' E 004°18'0 0.0
2018-Apr-07 07:24N 51°20' E 004°18'0 0.0
2018-Apr-07 07:00N 51°20' E 004°18'0 0.0
2018-Apr-07 06:27N 51°20' E 004°18'0 0.0
2018-Apr-07 05:57N 51°20' E 004°18'0 0.0
2018-Apr-07 05:30N 51°20' E 004°18'0 0.0
2018-Apr-07 05:00N 51°20' E 004°18'0 0.0
2018-Apr-07 04:30N 51°20' E 004°18'0 0.0
2018-Apr-07 03:57N 51°20' E 004°18'0 0.0
2018-Apr-07 03:30N 51°20' E 004°18'0 0.0
2018-Apr-07 03:00N 51°20' E 004°18'0 0.0
2018-Apr-07 02:27N 51°20' E 004°18'0 0.0
2018-Apr-07 02:00N 51°20' E 004°18'0 0.0
2018-Apr-07 01:30N 51°20' E 004°18'0 0.0
2018-Apr-07 01:00N 51°20' E 004°18'0 0.0
2018-Apr-07 00:30N 51°20' E 004°18'0 0.1
2018-Apr-07 00:00N 51°20' E 004°18'0 0.3
2018-Apr-06 23:30N 51°20' E 004°18'1 1.1
2018-Apr-06 23:01N 51°21' E 004°17'0 0.0
2018-Apr-06 22:30N 51°21' E 004°17'0 0.1
2018-Apr-06 22:01N 51°21' E 004°17'1 3.0
2018-Apr-06 21:30N 51°21' E 004°15'3 5.9
2018-Apr-06 21:01N 51°24' E 004°12'5 9.5
2018-Apr-06 20:30N 51°22' E 004°05'5 9.2
2018-Apr-06 20:00N 51°26' E 004°01'4 8.0
2018-Apr-06 19:30N 51°23' E 003°57'5 9.6
2018-Apr-06 19:00N 51°21' E 003°50'5 9.9
2018-Apr-06 18:30N 51°23' E 003°43'5 9.7
2018-Apr-06 18:00N 51°26' E 003°37'4 7.4
2018-Apr-06 17:30N 51°25' E 003°31'612.1
2018-Apr-06 17:00N 51°24' E 003°21'612.3
2018-Apr-06 16:30N 51°24' E 003°11'612.0
2018-Apr-06 16:00N 51°24' E 003°02'611.6
2018-Apr-06 15:30N 51°25' E 002°53'511.0
2018-Apr-06 15:00N 51°24' E 002°44'3 6.5
2018-Apr-06 14:29N 51°26' E 002°40'3 5.4
2018-Apr-06 13:57N 51°27' E 002°36'0 0.0
2018-Apr-06 13:30N 51°27' E 002°36'0 0.0
2018-Apr-06 12:54N 51°27' E 002°36'0 0.0
2018-Apr-06 12:29N 51°27' E 002°36'0 0.0
2018-Apr-06 12:00N 51°27' E 002°36'0 0.0
2018-Apr-06 11:21N 51°27' E 002°36'0 0.0
2018-Apr-06 10:57N 51°27' E 002°36'0 0.1
2018-Apr-06 10:29N 51°27' E 002°36'0 0.0
2018-Apr-06 09:59N 51°27' E 002°36'0 0.0
2018-Apr-06 09:20N 51°27' E 002°36'0 0.1
2018-Apr-06 09:00N 51°27' E 002°36'0 0.0
2018-Apr-06 08:21N 51°27' E 002°36'0 0.0
2018-Apr-06 08:00N 51°27' E 002°36'0 0.0
2018-Apr-06 06:59N 51°27' E 002°36'0 0.1
2018-Apr-06 06:30N 51°27' E 002°36'0 0.0
2018-Apr-06 05:56N 51°27' E 002°36'0 0.0
2018-Apr-06 05:26N 51°27' E 002°36'0 0.0
2018-Apr-06 04:48N 51°27' E 002°36'0 0.0
2018-Apr-06 04:21N 51°27' E 002°36'0 0.0
2018-Apr-06 03:54N 51°27' E 002°36'0 0.0
2018-Apr-06 03:27N 51°27' E 002°36'0 0.0
2018-Apr-06 02:51N 51°27' E 002°36'0 0.1
2018-Apr-06 02:30N 51°27' E 002°36'0 0.2
2018-Apr-06 02:00N 51°27' E 002°36'0 0.1
2018-Apr-06 01:29N 51°27' E 002°36'0 0.0
2018-Apr-06 01:00N 51°27' E 002°36'0 0.1
2018-Apr-06 00:30N 51°27' E 002°36'0 0.0
2018-Apr-05 23:59N 51°27' E 002°36'0 0.0
2018-Apr-05 23:29N 51°27' E 002°36'0 0.0
2018-Apr-05 23:00N 51°27' E 002°36'0 0.0
2018-Apr-05 22:29N 51°27' E 002°36'0 0.0
2018-Apr-05 21:59N 51°27' E 002°36'0 0.0
2018-Apr-05 21:26N 51°27' E 002°36'0 0.0
2018-Apr-05 21:00N 51°27' E 002°36'0 0.0
2018-Apr-05 20:27N 51°27' E 002°36'0 0.1
2018-Apr-05 20:00N 51°27' E 002°36'0 0.2
2018-Apr-05 19:29N 51°27' E 002°36'0 0.2
2018-Apr-05 18:56N 51°27' E 002°36'0 0.1
2018-Apr-05 18:26N 51°27' E 002°36'0 0.0
2018-Apr-05 17:57N 51°27' E 002°36'0 0.1
2018-Apr-05 17:29N 51°27' E 002°36'0 0.0
2018-Apr-05 17:00N 51°27' E 002°37'0 0.0
2018-Apr-05 16:30N 51°27' E 002°37'0 0.0
2018-Apr-05 15:59N 51°27' E 002°37'0 0.1
2018-Apr-05 15:20N 51°27' E 002°37'0 0.1
2018-Apr-05 14:59N 51°27' E 002°37'0 0.1
2018-Apr-05 14:29N 51°27' E 002°37'0 0.1
2018-Apr-05 14:00N 51°27' E 002°36'0 0.1
2018-Apr-05 13:29N 51°27' E 002°36'0 0.1
2018-Apr-05 12:57N 51°27' E 002°36'0 0.0
2018-Apr-05 12:30N 51°27' E 002°36'0 0.0
2018-Apr-05 12:00N 51°27' E 002°36'0 0.0
2018-Apr-05 11:30N 51°27' E 002°36'0 0.0
2018-Apr-05 11:00N 51°27' E 002°36'0 0.0
2018-Apr-05 10:29N 51°27' E 002°36'0 0.0
2018-Apr-05 09:59N 51°27' E 002°36'0 0.1
2018-Apr-05 09:30N 51°27' E 002°36'0 0.0
2018-Apr-05 09:00N 51°27' E 002°36'0 0.0
2018-Apr-05 08:29N 51°27' E 002°36'0 0.0
2018-Apr-05 08:00N 51°27' E 002°36'0 0.2
2018-Apr-05 07:30N 51°27' E 002°37'0 0.0
2018-Apr-05 07:00N 51°27' E 002°37'0 0.1
2018-Apr-05 06:26N 51°27' E 002°37'0 0.0
2018-Apr-05 05:59N 51°27' E 002°37'0 0.0
2018-Apr-05 05:30N 51°27' E 002°37'0 0.0
2018-Apr-05 05:00N 51°27' E 002°37'0 0.1
2018-Apr-05 04:30N 51°27' E 002°37'0 0.1
2018-Apr-05 03:59N 51°27' E 002°37'0 0.0
2018-Apr-05 03:21N 51°27' E 002°37'0 0.1
2018-Apr-05 02:54N 51°27' E 002°37'0 0.1
2018-Apr-05 02:27N 51°27' E 002°37'0 0.0
2018-Apr-05 01:54N 51°27' E 002°37'0 0.0
2018-Apr-05 01:20N 51°27' E 002°37'0 0.0
2018-Apr-05 00:56N 51°27' E 002°37'0 0.1
2018-Apr-05 00:30N 51°27' E 002°37'0 0.2
2018-Apr-04 23:56N 51°27' E 002°36'0 0.1
2018-Apr-04 23:30N 51°27' E 002°36'0 0.2
2018-Apr-04 22:59N 51°27' E 002°36'0 0.2
2018-Apr-04 22:29N 51°27' E 002°36'0 0.1
2018-Apr-04 21:53N 51°27' E 002°36'0 0.1
2018-Apr-04 21:24N 51°27' E 002°36'0 0.1
2018-Apr-04 20:57N 51°27' E 002°36'0 0.0
2018-Apr-04 20:30N 51°27' E 002°36'0 0.0
2018-Apr-04 19:59N 51°27' E 002°36'0 0.0
2018-Apr-04 19:29N 51°27' E 002°36'0 0.0
2018-Apr-04 18:59N 51°27' E 002°36'0 0.0
2018-Apr-04 18:30N 51°27' E 002°36'0 0.1
2018-Apr-04 17:59N 51°27' E 002°36'0 0.1
2018-Apr-04 17:29N 51°27' E 002°36'0 0.7
2018-Apr-04 16:51N 51°28' E 002°37'1 3.2
2018-Apr-04 16:30N 51°28' E 002°38'2 2.6
2018-Apr-04 15:48N 51°29' E 002°41'1 3.0
2018-Apr-04 15:29N 51°30' E 002°41'2 5.1
2018-Apr-04 15:00N 51°32' E 002°42'611.4
2018-Apr-04 14:30N 51°38' E 002°40'712.4
2018-Apr-04 13:56N 51°45' E 002°39'3812.8
2018-Apr-04 10:57N 52°07' E 003°29'3 6.5
2018-Apr-04 10:27N 52°09' E 003°33'0 0.1
2018-Apr-04 10:00N 52°09' E 003°33'0 0.2
2018-Apr-04 09:27N 52°09' E 003°33'0 0.1
2018-Apr-04 08:57N 52°09' E 003°33'0 0.1
2018-Apr-04 08:27N 52°09' E 003°33'0 0.0
2018-Apr-04 07:57N 52°09' E 003°33'0 0.0
2018-Apr-04 07:30N 52°09' E 003°33'0 0.0
2018-Apr-04 06:54N 52°09' E 003°33'0 0.0
2018-Apr-04 06:09N 52°09' E 003°33'0 0.1
2018-Apr-04 06:00N 52°09' E 003°33'0 0.0
2018-Apr-04 05:24N 52°09' E 003°33'0 0.0
2018-Apr-04 05:00N 52°09' E 003°33'0 0.0
2018-Apr-04 04:27N 52°09' E 003°33'0 0.0
2018-Apr-04 04:00N 52°09' E 003°33'0 0.0
2018-Apr-04 03:30N 52°09' E 003°33'0 0.0
2018-Apr-04 02:57N 52°09' E 003°33'0 0.0
2018-Apr-04 02:30N 52°09' E 003°33'0 0.1
2018-Apr-04 02:00N 52°09' E 003°33'0 0.3
2018-Apr-04 01:30N 52°09' E 003°33'0 0.2
2018-Apr-04 01:00N 52°09' E 003°33'0 0.0
2018-Apr-04 00:30N 52°09' E 003°33'1 1.0
2018-Apr-04 00:00N 52°09' E 003°33'1 2.8
2018-Apr-03 23:29N 52°07' E 003°35'3 5.5
2018-Apr-03 23:00N 52°06' E 003°38'4 7.0
2018-Apr-03 22:30N 52°05' E 003°44'5 9.5
2018-Apr-03 22:00N 52°03' E 003°51'4 8.7
2018-Apr-03 21:31N 52°01' E 003°57'612.7
2018-Apr-03 21:00N 51°58' E 004°06'4 7.2
2018-Apr-03 20:30N 51°56' E 004°11'1 1.0
2018-Apr-03 19:59N 51°56' E 004°12'0 0.0
2018-Apr-03 19:29N 51°56' E 004°12'0 0.0
2018-Apr-03 18:59N 51°56' E 004°12'0 0.0
2018-Apr-03 18:29N 51°56' E 004°12'0 0.0
2018-Apr-03 17:59N 51°56' E 004°12'0 0.0
2018-Apr-03 17:29N 51°56' E 004°12'0 0.0
2018-Apr-03 16:59N 51°56' E 004°12'0 0.0
2018-Apr-03 16:29N 51°56' E 004°12'0 0.0
2018-Apr-03 15:59N 51°56' E 004°12'0 0.0
2018-Apr-03 15:29N 51°56' E 004°12'0 0.0
2018-Apr-03 14:59N 51°56' E 004°12'0 0.0
2018-Apr-03 14:29N 51°56' E 004°12'0 0.0
2018-Apr-03 13:59N 51°56' E 004°12'0 0.0
2018-Apr-03 13:29N 51°56' E 004°12'0 0.0
2018-Apr-03 12:56N 51°56' E 004°12'0 0.0
2018-Apr-03 12:29N 51°56' E 004°12'0 0.0
2018-Apr-03 11:59N 51°56' E 004°12'0 0.0
2018-Apr-03 11:29N 51°56' E 004°12'0 0.0
2018-Apr-03 10:59N 51°56' E 004°12'0 0.0
2018-Apr-03 10:29N 51°56' E 004°12'0 0.0
2018-Apr-03 09:59N 51°56' E 004°12'0 0.0
2018-Apr-03 09:29N 51°56' E 004°12'0 0.0
2018-Apr-03 08:59N 51°56' E 004°12'0 0.0
2018-Apr-03 08:29N 51°56' E 004°12'0 0.0
2018-Apr-03 07:59N 51°56' E 004°12'0 0.0
2018-Apr-03 07:29N 51°56' E 004°12'0 0.0
2018-Apr-03 06:59N 51°56' E 004°12'0 0.0
2018-Apr-03 06:29N 51°56' E 004°12'0 0.0
2018-Apr-03 05:59N 51°56' E 004°12'0 0.0
2018-Apr-03 05:29N 51°56' E 004°12'0 0.0
2018-Apr-03 04:59N 51°56' E 004°12'0 0.0
2018-Apr-03 04:29N 51°56' E 004°12'0 0.0
2018-Apr-03 03:59N 51°56' E 004°12'0 0.0
2018-Apr-03 03:29N 51°56' E 004°12'0 0.0
2018-Apr-03 02:59N 51°56' E 004°12'0 0.0
2018-Apr-03 02:29N 51°56' E 004°12'0 0.0
2018-Apr-03 01:59N 51°56' E 004°12'0 0.0
2018-Apr-03 01:29N 51°56' E 004°12'0 0.0
2018-Apr-03 00:59N 51°56' E 004°12'0 0.0
2018-Apr-03 00:29N 51°56' E 004°12'0 0.0
2018-Apr-02 23:59N 51°56' E 004°12'0 0.0
2018-Apr-02 23:29N 51°56' E 004°12'0 0.0
2018-Apr-02 22:59N 51°56' E 004°12'0 0.0
2018-Apr-02 22:29N 51°56' E 004°12'0 0.0
2018-Apr-02 21:59N 51°56' E 004°12'0 0.0
2018-Apr-02 21:29N 51°56' E 004°12'0 0.0
2018-Apr-02 20:59N 51°56' E 004°12'0 0.0
2018-Apr-02 20:29N 51°56' E 004°12'0 0.0
2018-Apr-02 19:59N 51°56' E 004°12'0 0.0
2018-Apr-02 19:29N 51°56' E 004°12'0 0.0
2018-Apr-02 18:59N 51°56' E 004°12'0 0.0
2018-Apr-02 18:29N 51°56' E 004°12'0 0.0
2018-Apr-02 17:59N 51°56' E 004°12'0 0.0
2018-Apr-02 17:29N 51°56' E 004°12'0 0.0
2018-Apr-02 16:59N 51°56' E 004°12'0 0.0
2018-Apr-02 16:29N 51°56' E 004°12'0 0.0
2018-Apr-02 15:59N 51°56' E 004°12'0 0.0
2018-Apr-02 15:29N 51°56' E 004°12'0 0.0
2018-Apr-02 14:59N 51°56' E 004°12'0 0.0
2018-Apr-02 14:29N 51°56' E 004°12'0 0.0
2018-Apr-02 13:59N 51°56' E 004°12'0 0.0
2018-Apr-02 13:29N 51°56' E 004°12'0 0.0
2018-Apr-02 12:59N 51°56' E 004°12'0 0.0
2018-Apr-02 12:29N 51°56' E 004°12'0 0.0
2018-Apr-02 11:59N 51°56' E 004°12'0 0.0
2018-Apr-02 11:29N 51°56' E 004°12'0 0.0
2018-Apr-02 10:59N 51°56' E 004°12'0 0.0
2018-Apr-02 10:29N 51°56' E 004°12'0 0.0
2018-Apr-02 09:59N 51°56' E 004°12'0 0.0
2018-Apr-02 09:29N 51°56' E 004°12'0 0.0
2018-Apr-02 08:59N 51°56' E 004°12'0 0.0
2018-Apr-02 08:29N 51°56' E 004°12'0 0.0
2018-Apr-02 07:59N 51°56' E 004°12'0 0.0
2018-Apr-02 07:29N 51°56' E 004°12'0 0.0
2018-Apr-02 06:56N 51°56' E 004°12'0 0.0
2018-Apr-02 06:29N 51°56' E 004°12'0 0.0
2018-Apr-02 05:59N 51°56' E 004°12'0 0.0
2018-Apr-02 05:29N 51°56' E 004°12'0 0.0
2018-Apr-02 04:59N 51°56' E 004°12'0 0.0
2018-Apr-02 04:29N 51°56' E 004°12'0 0.0
2018-Apr-02 03:59N 51°56' E 004°12'0 0.0
2018-Apr-02 03:29N 51°56' E 004°12'0 0.0
2018-Apr-02 02:59N 51°56' E 004°12'0 0.0
2018-Apr-02 02:29N 51°56' E 004°12'0 0.0
2018-Apr-02 01:59N 51°56' E 004°12'0 0.0
2018-Apr-02 01:29N 51°56' E 004°12'0 0.0
2018-Apr-02 00:59N 51°56' E 004°12'0 0.0
2018-Apr-02 00:29N 51°56' E 004°12'0 0.0
2018-Apr-01 23:59N 51°56' E 004°12'0 0.0
2018-Apr-01 23:29N 51°56' E 004°12'0 0.0
2018-Apr-01 22:59N 51°56' E 004°12'0 0.0
2018-Apr-01 22:29N 51°56' E 004°12'0 0.0
2018-Apr-01 21:59N 51°56' E 004°12'0 0.0
2018-Apr-01 21:29N 51°56' E 004°12'0 0.0
2018-Apr-01 20:59N 51°56' E 004°12'0 0.0
2018-Apr-01 20:23N 51°56' E 004°12'0 0.0
2018-Apr-01 19:59N 51°56' E 004°12'0 0.0
2018-Apr-01 19:29N 51°56' E 004°12'0 0.0
2018-Apr-01 18:59N 51°56' E 004°12'  

Dump ship's entire track history